Time;durP1;ratioP1;P1;durP2;ratioP2;P2;SDS_P1;SDS_P2;PMS_P1;PMS_P2;Temp;Humidity;BMP_temperature;BMP_pressure;BME280_temperature;BME280_humidity;BME280_pressure;Samples;Min_cycle;Max_cycle;Signal;HPM_P1;HPM_P2
2021/01/15 00:01:45;;;;;;;15.65;8.48;;;;;;;-0.03;79.25;100244.66;5091438;28;20036;-64
2021/01/15 00:04:10;;;;;;;18.92;9.57;;;;;;;-0.25;78.42;100220.19;5092323;28;20016;-64
2021/01/15 00:06:36;;;;;;;17.48;9.90;;;;;;;-0.13;78.55;100254.75;5092369;28;20040;-64
2021/01/15 00:09:02;;;;;;;14.65;8.52;;;;;;;-0.26;78.55;100264.13;5092233;28;20027;-63
2021/01/15 00:11:32;;;;;;;14.98;8.27;;;;;;;-0.42;78.76;100246.44;5092516;28;20024;-64
2021/01/15 00:13:59;;;;;;;16.88;8.73;;;;;;;-0.39;78.91;100254.19;5091060;28;20024;-64
2021/01/15 00:16:27;;;;;;;17.58;7.82;;;;;;;-0.36;78.79;100273.38;5091081;28;20507;-64
2021/01/15 00:18:55;;;;;;;15.43;7.88;;;;;;;-0.36;79.20;100259.31;5092297;28;20117;-64
2021/01/15 00:21:25;;;;;;;16.40;8.32;;;;;;;-0.42;78.77;100254.34;5092226;28;20107;-63
2021/01/15 00:23:52;;;;;;;17.70;8.77;;;;;;;-0.38;78.51;100271.72;5092136;28;20028;-63
2021/01/15 00:26:20;;;;;;;18.13;9.45;;;;;;;-0.45;78.40;100257.13;5091221;28;20043;-63
2021/01/15 00:28:46;;;;;;;19.15;8.63;;;;;;;-0.38;78.52;100284.91;5091733;28;20426;-64
2021/01/15 00:31:12;;;;;;;18.30;8.38;;;;;;;-0.42;78.42;100286.81;5092340;28;20032;-64
2021/01/15 00:33:38;;;;;;;14.45;8.15;;;;;;;-0.30;77.64;100285.41;5091887;28;20046;-65
2021/01/15 00:36:04;;;;;;;14.07;7.50;;;;;;;-0.41;77.06;100285.91;5092703;28;20032;-63
2021/01/15 00:38:30;;;;;;;16.05;8.50;;;;;;;-0.24;76.96;100311.47;5092829;28;20566;-64
2021/01/15 00:41:04;;;;;;;17.23;8.05;;;;;;;-0.34;77.29;100303.13;5092352;28;20047;-63
2021/01/15 00:43:30;;;;;;;18.38;8.82;;;;;;;-0.29;77.06;100305.56;5092515;28;20020;-64
2021/01/15 00:45:56;;;;;;;17.52;8.52;;;;;;;-0.36;77.00;100297.06;5090408;28;20024;-64
2021/01/15 00:48:22;;;;;;;15.00;7.93;;;;;;;-0.54;76.44;100246.97;5092199;28;20051;-64
2021/01/15 00:50:47;;;;;;;13.85;7.75;;;;;;;-0.25;76.17;100288.69;5092234;28;20026;-65
2021/01/15 00:53:14;;;;;;;13.52;7.30;;;;;;;-0.25;75.55;100286.06;5090635;28;20020;-64
2021/01/15 00:55:39;;;;;;;15.25;8.05;;;;;;;-0.20;75.01;100294.59;5090090;28;20016;-65
2021/01/15 00:58:05;;;;;;;17.52;8.38;;;;;;;-0.07;75.44;100316.84;5090581;28;20047;-64
2021/01/15 01:00:30;;;;;;;14.50;7.13;;;;;;;-0.13;75.08;100317.13;5090837;28;20024;-64
2021/01/15 01:02:56;;;;;;;14.63;7.43;;;;;;;-0.34;74.92;100286.47;5090625;28;20397;-64
2021/01/15 01:05:22;;;;;;;13.52;7.22;;;;;;;-0.14;74.67;100325.97;5091819;28;20438;-64
2021/01/15 01:07:49;;;;;;;15.70;7.88;;;;;;;-0.22;74.47;100325.47;5091879;28;20061;-64
2021/01/15 01:10:15;;;;;;;15.02;7.30;;;;;;;-0.31;75.21;100321.44;5091496;28;20043;-64
2021/01/15 01:12:42;;;;;;;14.57;8.07;;;;;;;-0.32;75.13;100317.09;5090624;28;20031;-64
2021/01/15 01:15:12;;;;;;;11.90;6.80;;;;;;;-0.36;75.20;100317.28;5090191;28;20111;-65
2021/01/15 01:17:38;;;;;;;13.60;8.27;;;;;;;-0.28;74.93;100312.53;5091396;28;20032;-64
2021/01/15 01:20:06;;;;;;;13.80;7.60;;;;;;;-0.28;74.49;100308.16;5091678;28;20019;-65
2021/01/15 01:22:32;;;;;;;18.70;8.23;;;;;;;-0.21;74.06;100316.63;5092054;28;20020;-65
2021/01/15 01:24:57;;;;;;;14.95;7.03;;;;;;;-0.27;73.66;100309.84;5091585;28;20038;-64
2021/01/15 01:27:23;;;;;;;18.45;8.52;;;;;;;-0.31;73.67;100295.09;5091864;28;20024;-64
2021/01/15 01:29:48;;;;;;;16.15;8.48;;;;;;;-0.19;73.40;100317.41;5091856;28;20024;-65
2021/01/15 01:32:14;;;;;;;18.27;7.97;;;;;;;-0.20;72.58;100311.28;5091825;28;20752;-64
2021/01/15 01:34:39;;;;;;;17.20;8.57;;;;;;;-0.30;72.73;100299.44;5091562;28;20127;-64
2021/01/15 01:37:06;;;;;;;15.30;8.15;;;;;;;-0.22;72.95;100326.28;5091528;28;20036;-63
2021/01/15 01:39:32;;;;;;;13.82;7.53;;;;;;;-0.29;72.78;100324.03;5091887;28;20124;-63
2021/01/15 01:41:57;;;;;;;13.57;7.50;;;;;;;-0.36;73.29;100320.78;5091571;28;20500;-63
2021/01/15 01:44:23;;;;;;;15.18;7.82;;;;;;;-0.44;73.46;100316.78;5091645;28;20081;-63
2021/01/15 01:46:49;;;;;;;16.40;8.10;;;;;;;-0.50;74.00;100323.16;5090405;28;20069;-63
2021/01/15 01:49:15;;;;;;;17.48;7.95;;;;;;;-0.49;74.19;100318.72;5091757;28;20024;-64
2021/01/15 01:51:41;;;;;;;14.18;6.88;;;;;;;-0.58;74.08;100314.72;5091577;28;20031;-64
2021/01/15 01:54:08;;;;;;;16.17;7.68;;;;;;;-0.45;73.07;100329.06;5091400;28;20380;-63
2021/01/15 01:56:35;;;;;;;16.13;8.02;;;;;;;-0.48;72.94;100323.09;5091616;28;20119;-63
2021/01/15 01:59:01;;;;;;;16.45;8.40;;;;;;;-0.53;73.26;100320.66;5091300;28;20019;-63
2021/01/15 02:01:26;;;;;;;16.08;7.72;;;;;;;-0.87;73.00;100264.25;5091573;28;20110;-62
2021/01/15 02:04:03;;;;;;;16.08;7.85;;;;;;;-0.68;73.90;100323.09;5091571;28;20103;-64
2021/01/15 02:06:31;;;;;;;15.07;8.07;;;;;;;-0.78;74.36;100317.34;5091387;28;20039;-64
2021/01/15 02:08:56;;;;;;;16.70;7.38;;;;;;;-0.78;75.03;100316.47;5091396;28;20028;-63
2021/01/15 02:11:41;;;;;;;15.05;7.50;;;;;;;-0.79;75.25;100307.75;5091472;28;20020;-64
2021/01/15 02:14:22;;;;;;;16.52;8.75;;;;;;;-0.78;74.92;100305.94;5091673;28;20024;-63
2021/01/15 02:16:50;;;;;;;13.20;7.22;;;;;;;-0.76;74.87;100304.13;5091552;28;20388;-64
2021/01/15 02:19:25;;;;;;;16.02;7.95;;;;;;;-0.74;74.71;100308.38;5091324;28;20058;-64
2021/01/15 02:22:14;;;;;;;15.93;7.82;;;;;;;-0.73;74.74;100304.00;5091238;28;20742;-63
2021/01/15 02:24:58;;;;;;;14.88;7.65;;;;;;;-0.68;74.26;100299.41;5091263;28;20074;-63
2021/01/15 02:27:57;;;;;;;13.98;7.10;;;;;;;-0.79;74.73;100298.97;5091217;28;20479;-63
2021/01/15 02:30:40;;;;;;;14.90;6.75;;;;;;;-0.89;75.28;100276.59;5091303;28;20062;-63
2021/01/15 02:33:15;;;;;;;16.15;7.65;;;;;;;-0.96;74.59;100269.88;5090973;28;20066;-64
2021/01/15 02:35:48;;;;;;;16.70;8.50;;;;;;;-0.82;75.36;100301.75;5090794;28;20479;-63
2021/01/15 02:38:14;;;;;;;16.33;7.70;;;;;;;-0.79;75.49;100298.97;5091041;28;20127;-64
2021/01/15 02:41:18;;;;;;;14.18;7.50;;;;;;;-0.82;75.80;100318.41;5091180;28;20504;-63
2021/01/15 02:43:49;;;;;;;14.13;7.33;;;;;;;-0.92;76.44;100311.81;5075106;28;20063;-64
2021/01/15 02:46:17;;;;;;;16.13;7.20;;;;;;;-0.99;77.16;100310.34;5090892;28;20028;-64
2021/01/15 02:48:47;;;;;;;16.90;7.65;;;;;;;-1.08;76.72;100280.91;5092654;28;20054;-64
2021/01/15 02:51:14;;;;;;;15.43;7.38;;;;;;;-1.05;77.59;100309.72;5094612;28;20032;-64
2021/01/15 02:53:39;;;;;;;14.57;8.07;;;;;;;-1.10;78.04;100304.66;5094628;28;20032;-64
2021/01/15 02:56:05;;;;;;;19.20;8.30;;;;;;;-1.11;78.50;100309.97;5093282;28;20027;-64
2021/01/15 02:58:31;;;;;;;20.23;7.90;;;;;;;-1.16;78.98;100309.31;5094479;28;20047;-64
2021/01/15 03:00:57;;;;;;;18.25;7.78;;;;;;;-1.18;79.17;100306.75;5094413;28;20032;-64
2021/01/15 03:03:31;;;;;;;16.77;7.95;;;;;;;-1.25;79.91;100304.44;5094355;28;20099;-64
2021/01/15 03:06:03;;;;;;;16.58;8.43;;;;;;;-1.34;80.42;100294.28;5094264;28;20023;-64
2021/01/15 03:08:30;;;;;;;20.08;8.48;;;;;;;-1.42;81.00;100286.69;5094152;28;20032;-63
2021/01/15 03:11:00;;;;;;;18.40;8.80;;;;;;;-1.42;81.39;100299.00;5094246;28;20040;-64
2021/01/15 03:13:28;;;;;;;17.05;8.88;;;;;;;-1.47;81.76;100293.91;5094007;28;20032;-64
2021/01/15 03:15:57;;;;;;;17.15;8.70;;;;;;;-1.53;82.29;100278.38;5094093;28;20360;-63
2021/01/15 03:18:23;;;;;;;17.83;9.57;;;;;;;-1.35;82.03;100300.47;5094067;28;20028;-63
2021/01/15 03:20:49;;;;;;;18.33;9.90;;;;;;;-1.37;81.99;100281.25;5094039;28;20028;-63
2021/01/15 03:23:14;;;;;;;19.05;9.63;;;;;;;-1.28;81.80;100292.25;5092381;28;20023;-63
2021/01/15 03:25:40;;;;;;;16.35;8.68;;;;;;;-1.25;81.14;100307.06;5093713;28;20028;-63
2021/01/15 03:28:05;;;;;;;21.25;10.73;;;;;;;-1.52;81.03;100252.94;5093797;28;20020;-63
2021/01/15 03:30:31;;;;;;;18.00;9.18;;;;;;;-1.24;81.17;100301.75;5093813;28;20449;-64
2021/01/15 03:33:01;;;;;;;22.98;10.93;;;;;;;-1.25;81.11;100302.66;5093850;28;20059;-64
2021/01/15 03:35:29;;;;;;;23.50;11.20;;;;;;;-1.31;81.99;100294.16;5093814;28;20119;-64
2021/01/15 03:38:04;;;;;;;25.42;12.57;;;;;;;-1.27;82.13;100308.88;5093784;28;20108;-64
2021/01/15 03:40:33;;;;;;;23.13;11.15;;;;;;;-1.23;82.64;100303.44;5091804;28;20077;-64
2021/01/15 03:42:59;;;;;;;22.08;10.63;;;;;;;-1.19;82.13;100293.66;5092782;28;20040;-64
2021/01/15 03:45:26;;;;;;;20.98;10.98;;;;;;;-1.17;82.46;100307.59;5092898;28;20031;-64
2021/01/15 03:47:51;;;;;;;25.27;11.10;;;;;;;-1.20;82.38;100302.44;5092822;28;20032;-64
2021/01/15 03:50:17;;;;;;;21.20;10.52;;;;;;;-1.26;82.53;100287.78;5091624;28;20078;-64
2021/01/15 03:52:45;;;;;;;21.48;10.32;;;;;;;-1.25;82.79;100288.66;5092748;28;20020;-65
2021/01/15 03:55:10;;;;;;;22.90;10.27;;;;;;;-1.30;83.32;100282.69;5111813;28;20019;-67
2021/01/15 03:57:36;;;;;;;21.10;10.15;;;;;;;-1.23;83.82;100294.72;5112701;28;20088;-63
2021/01/15 04:00:04;;;;;;;24.05;10.20;;;;;;;-1.19;83.22;100293.66;5112943;28;20441;-63
2021/01/15 04:02:30;;;;;;;23.13;10.43;;;;;;;-1.40;83.81;100274.34;5113124;28;20028;-64
2021/01/15 04:04:56;;;;;;;20.25;10.73;;;;;;;-1.30;84.54;100294.09;5113173;28;20429;-64
2021/01/15 04:07:21;;;;;;;23.23;12.00;;;;;;;-1.43;85.08;100281.47;5113300;28;20034;-64
2021/01/15 04:09:47;;;;;;;25.52;10.65;;;;;;;-1.43;85.81;100284.09;5113013;28;20455;-63
2021/01/15 04:12:13;;;;;;;23.77;11.23;;;;;;;-1.47;85.83;100270.25;5112358;28;20046;-63
2021/01/15 04:14:40;;;;;;;24.52;13.18;;;;;;;-1.41;86.04;100277.91;5113120;28;20020;-64
2021/01/15 04:17:06;;;;;;;25.63;11.77;;;;;;;-1.45;85.92;100270.19;5112497;28;20028;-64
2021/01/15 04:19:32;;;;;;;24.52;11.93;;;;;;;-1.50;86.87;100264.25;5111667;28;20499;-63
2021/01/15 04:21:57;;;;;;;27.27;12.18;;;;;;;-1.36;86.30;100291.69;5111948;28;20020;-63
2021/01/15 04:24:24;;;;;;;29.20;13.43;;;;;;;-1.42;86.93;100297.19;5112205;28;20035;-64
2021/01/15 04:26:57;;;;;;;29.55;14.07;;;;;;;-1.44;87.22;100304.31;5110953;28;20054;-64
2021/01/15 04:29:26;;;;;;;26.75;13.65;;;;;;;-1.55;88.04;100303.84;5111799;28;20081;-64
2021/01/15 04:31:52;;;;;;;30.65;13.32;;;;;;;-1.59;88.29;100310.16;5112134;28;20043;-63
2021/01/15 04:34:18;;;;;;;29.45;13.63;;;;;;;-1.76;87.92;100283.69;5111910;28;20047;-64
2021/01/15 04:36:43;;;;;;;29.55;13.85;;;;;;;-1.70;88.97;100301.84;5111622;28;20028;-64
2021/01/15 04:39:09;;;;;;;25.42;13.55;;;;;;;-1.81;89.01;100287.41;5112632;28;20062;-63
2021/01/15 04:41:35;;;;;;;25.63;12.85;;;;;;;-1.73;89.20;100296.69;5112619;28;20061;-63
2021/01/15 04:44:02;;;;;;;29.50;14.90;;;;;;;-1.92;90.02;100260.66;5112506;28;20066;-63
2021/01/15 04:46:28;;;;;;;25.90;13.60;;;;;;;-1.79;90.17;100285.56;5112560;28;20024;-64
2021/01/15 04:48:56;;;;;;;26.85;13.48;;;;;;;-1.79;90.44;100298.69;5112824;28;20026;-64
2021/01/15 04:51:27;;;;;;;27.55;13.85;;;;;;;-1.80;90.47;100297.84;5112493;28;20032;-64
2021/01/15 04:53:56;;;;;;;25.75;14.55;;;;;;;-1.84;90.90;100293.59;5112226;28;20027;-64
2021/01/15 04:56:35;;;;;;;30.63;14.77;;;;;;;-1.98;91.52;100268.78;5112643;28;20027;-64
2021/01/15 04:59:03;;;;;;;30.27;14.20;;;;;;;-1.89;91.54;100290.31;5112371;28;20066;-64
2021/01/15 05:01:37;;;;;;;27.83;14.32;;;;;;;-1.97;90.81;100279.22;5111972;28;20031;-64
2021/01/15 05:04:06;;;;;;;;;;;;;;;-1.90;90.59;100293.00;5112283;28;20486;-64
2021/01/15 05:06:50;;;;;;;31.50;13.95;;;;;;;-1.79;91.43;100289.03;5111429;28;19950;-63
2021/01/15 05:09:26;;;;;;;27.02;13.95;;;;;;;-1.75;91.50;100287.13;5100770;28;20034;-64
2021/01/15 05:11:52;;;;;;;34.53;15.02;;;;;;;-1.90;92.53;100278.09;5108548;28;20032;-64
2021/01/15 05:14:20;;;;;;;31.98;15.40;;;;;;;-1.88;93.26;100288.53;5108528;28;20441;-64
2021/01/15 05:16:49;;;;;;;30.65;15.73;;;;;;;-2.07;93.52;100258.63;5110924;28;20383;-64
2021/01/15 05:19:16;;;;;;;37.25;17.52;;;;;;;-2.05;93.32;100272.53;5111578;28;20032;-64
2021/01/15 05:21:43;;;;;;;37.53;16.73;;;;;;;-1.84;93.49;100298.03;5111534;28;20035;-64
2021/01/15 05:24:09;;;;;;;33.38;15.98;;;;;;;-1.87;93.88;100292.88;5110671;28;20103;-64
2021/01/15 05:26:36;;;;;;;34.78;16.83;;;;;;;-1.89;93.76;100279.81;5112382;28;20046;-64
2021/01/15 05:29:04;;;;;;;30.60;16.42;;;;;;;-1.79;93.80;100298.69;5110923;28;20019;-64
2021/01/15 05:31:55;;;;;;;34.70;16.98;;;;;;;-1.77;93.96;100304.75;5112404;28;20418;-64
2021/01/15 05:34:25;;;;;;;33.00;16.45;;;;;;;-1.78;93.84;100296.00;5111748;28;20047;-63
2021/01/15 05:36:51;;;;;;;32.08;17.10;;;;;;;-1.75;93.50;100308.16;5112185;28;20051;-63
2021/01/15 05:39:24;;;;;;;29.73;15.88;;;;;;;-1.74;93.59;100309.91;5111903;28;20474;-63
2021/01/15 05:42:01;;;;;;;34.28;16.88;;;;;;;-1.78;94.10;100309.16;5102898;28;20043;-64
2021/01/15 05:44:29;;;;;;;34.58;15.95;;;;;;;-1.78;94.42;100310.94;5089091;28;20116;-63
2021/01/15 05:46:56;;;;;;;35.20;17.05;;;;;;;-1.80;94.70;100321.50;5096063;28;20228;-63
2021/01/15 05:49:22;;;;;;;33.42;15.82;;;;;;;-1.77;94.62;100324.03;5110365;28;20044;-63
2021/01/15 05:51:48;;;;;;;29.92;16.05;;;;;;;-1.67;94.30;100328.00;5110250;28;20035;-64
2021/01/15 05:54:30;;;;;;;30.80;15.98;;;;;;;-1.64;94.19;100332.28;5111026;28;20051;-63
2021/01/15 05:56:58;;;;;;;31.58;15.80;;;;;;;-1.62;93.70;100333.94;5100189;28;20032;-63
2021/01/15 05:59:23;;;;;;;31.70;16.40;;;;;;;-1.81;93.63;100297.91;5091338;28;20043;-63
2021/01/15 06:01:54;;;;;;;31.77;15.77;;;;;;;-1.70;93.51;100324.63;5109409;28;20028;-63
2021/01/15 06:04:33;;;;;;;34.20;16.90;;;;;;;-1.67;93.44;100338.53;5110649;28;20024;-63
2021/01/15 06:07:08;;;;;;;31.33;16.35;;;;;;;-1.68;93.28;100347.31;5111170;28;20016;-63
2021/01/15 06:09:33;;;;;;;32.63;16.48;;;;;;;-1.67;93.38;100358.69;5109818;28;20032;-63
2021/01/15 06:12:07;;;;;;;30.88;16.08;;;;;;;-1.68;93.87;100359.63;5101727;28;20517;-63
2021/01/15 06:14:33;;;;;;;31.75;15.57;;;;;;;-1.69;94.15;100361.38;5095980;28;20438;-62
2021/01/15 06:17:11;;;;;;;31.33;16.15;;;;;;;-1.68;93.84;100362.25;5108111;28;20024;-63
2021/01/15 06:19:54;;;;;;;35.15;17.73;;;;;;;-1.71;94.21;100355.31;5106467;28;20055;-63
2021/01/15 06:22:29;;;;;;;33.38;16.17;;;;;;;-1.74;94.44;100357.22;5107191;28;20015;-63
2021/01/15 06:25:04;;;;;;;34.88;16.40;;;;;;;-1.74;93.77;100358.06;5112379;28;20038;-64
2021/01/15 06:27:35;;;;;;;34.08;16.38;;;;;;;-1.89;93.53;100336.75;5115039;28;20073;-63
2021/01/15 06:30:04;;;;;;;38.70;18.42;;;;;;;-1.82;93.45;100362.75;5115143;28;20084;-64
2021/01/15 06:32:30;;;;;;;35.22;17.92;;;;;;;-1.79;93.87;100373.16;5108128;28;20024;-64
2021/01/15 06:34:55;;;;;;;39.38;19.55;;;;;;;-1.81;94.19;100374.97;5111967;28;20040;-63
2021/01/15 06:37:21;;;;;;;34.30;16.55;;;;;;;-2.00;94.03;100337.13;5114253;28;20119;-63
2021/01/15 06:40:08;;;;;;;37.08;17.67;;;;;;;-1.81;94.82;100368.88;5115172;28;20028;-64
2021/01/15 06:42:46;;;;;;;38.15;18.15;;;;;;;-1.79;94.64;100367.91;5109573;28;20023;-64
2021/01/15 06:45:14;;;;;;;35.05;16.85;;;;;;;-1.78;94.73;100366.13;5107583;28;20069;-64
2021/01/15 06:47:41;;;;;;;32.65;16.35;;;;;;;-1.84;94.36;100355.84;5113876;28;20020;-64
2021/01/15 06:50:12;;;;;;;36.45;18.17;;;;;;;-1.75;94.07;100373.88;5114633;28;20080;-64
2021/01/15 06:52:42;;;;;;;36.42;18.02;;;;;;;-1.73;93.99;100374.69;5115239;28;20028;-64
2021/01/15 06:55:15;;;;;;;36.50;18.08;;;;;;;-1.81;94.00;100359.19;5114946;28;20123;-64
2021/01/15 06:57:45;;;;;;;36.10;18.65;;;;;;;-1.72;94.30;100374.63;5114778;28;20025;-64
2021/01/15 07:00:14;;;;;;;38.33;19.95;;;;;;;-1.86;95.02;100347.16;5115010;28;20057;-64
2021/01/15 07:03:35;;;;;;;37.72;17.92;;;;;;;-1.76;94.56;100374.81;5115118;28;20040;-64
2021/01/15 07:06:02;;;;;;;39.08;17.30;;;;;;;-1.90;93.93;100361.31;5015133;28;20599;-64
2021/01/15 07:08:31;;;;;;;34.45;18.02;;;;;;;-1.79;94.27;100383.66;5031932;28;20175;-64
2021/01/15 07:10:59;;;;;;;38.75;19.35;;;;;;;-1.78;94.45;100387.16;5073716;28;20031;-64
2021/01/15 07:13:28;;;;;;;39.83;20.17;;;;;;;-1.86;94.67;100376.06;5114554;28;20023;-64
2021/01/15 07:15:54;;;;;;;39.65;18.95;;;;;;;-1.77;94.92;100394.13;5114640;28;20028;-65
2021/01/15 07:18:33;;;;;;;42.45;21.98;;;;;;;-1.73;95.62;100395.72;5114224;28;20030;-63
2021/01/15 07:21:08;;;;;;;50.10;21.73;;;;;;;-1.72;96.13;100392.16;5114055;28;20057;-64
2021/01/15 07:23:54;;;;;;;45.90;21.25;;;;;;;-1.61;96.58;100398.75;5113100;28;20111;-64
2021/01/15 07:26:23;;;;;;;43.38;19.92;;;;;;;-1.73;96.99;100369.44;5109135;28;20403;-63
2021/01/15 07:28:57;;;;;;;36.58;19.42;;;;;;;-1.37;96.84;100404.84;5114160;28;20464;-64
2021/01/15 07:31:25;;;;;;;38.35;20.20;;;;;;;-1.22;97.11;100417.44;5114035;28;20039;-63
2021/01/15 07:34:00;;;;;;;35.60;18.05;;;;;;;-0.99;97.25;100406.88;5113322;28;20035;-64
2021/01/15 07:36:37;;;;;;;40.40;17.38;;;;;;;-0.83;96.83;100405.34;5112500;28;20023;-64
2021/01/15 07:39:23;;;;;;;37.13;18.17;;;;;;;-0.69;96.59;100405.63;5113343;28;20028;-64
2021/01/15 07:41:53;;;;;;;42.92;18.42;;;;;;;-0.53;96.14;100404.06;5111405;28;20027;-64
2021/01/15 07:44:21;;;;;;;33.92;17.33;;;;;;;-0.37;95.62;100415.69;5112280;28;20115;-64
2021/01/15 07:46:51;;;;;;;38.40;18.05;;;;;;;-0.24;95.51;100416.88;5112167;28;20028;-64
2021/01/15 07:49:17;;;;;;;36.95;19.50;;;;;;;-0.11;94.82;100415.44;5112222;28;20020;-64
2021/01/15 07:51:42;;;;;;;37.20;19.23;;;;;;;-0.03;93.66;100386.97;5112232;28;20023;-64
2021/01/15 07:54:08;;;;;;;33.22;17.80;;;;;;;0.19;93.85;100408.81;5112258;28;20111;-64
2021/01/15 07:56:33;;;;;;;35.92;16.63;;;;;;;0.18;93.78;100404.47;5112471;28;20080;-64
2021/01/15 07:58:59;;;;;;;32.08;17.05;;;;;;;0.15;93.78;100390.56;5112842;28;20035;-64
2021/01/15 08:01:25;;;;;;;36.10;17.80;;;;;;;0.36;93.87;100408.94;5112991;28;20020;-64
2021/01/15 08:03:53;;;;;;;35.05;17.55;;;;;;;0.42;93.38;100415.72;5112920;28;20046;-65
2021/01/15 08:06:20;;;;;;;34.13;16.92;;;;;;;0.37;93.60;100402.72;5112826;28;20515;-64
2021/01/15 08:09:04;;;;;;;30.98;16.35;;;;;;;0.57;92.65;100407.97;5113032;27;20031;-64
2021/01/15 08:11:31;;;;;;;;;;;;;;;0.61;93.20;100422.72;5113240;28;20028;-64
2021/01/15 08:14:30;;;;;;;34.35;14.77;;;;;;;0.65;92.88;100416.41;5112728;28;19908;-64
2021/01/15 08:16:56;;;;;;;39.22;18.50;;;;;;;0.75;92.33;100419.44;5067833;28;20028;-64
2021/01/15 08:19:22;;;;;;;29.75;15.80;;;;;;;0.49;92.16;100369.66;5113047;28;20019;-63
2021/01/15 08:21:49;;;;;;;23.02;13.95;;;;;;;0.83;91.53;100422.56;5112543;28;20022;-64
2021/01/15 08:24:14;;;;;;;25.98;14.40;;;;;;;0.87;91.51;100438.19;5112538;28;20053;-63
2021/01/15 08:26:47;;;;;;;27.30;13.90;;;;;;;0.92;90.83;100424.78;5111024;28;20483;-63
2021/01/15 08:29:13;;;;;;;26.75;14.40;;;;;;;0.86;90.39;100418.03;5112363;28;20110;-64
2021/01/15 08:31:39;;;;;;;27.95;15.20;;;;;;;0.92;90.40;100423.00;5112263;28;20527;-64
2021/01/15 08:34:12;;;;;;;22.45;14.07;;;;;;;1.02;90.79;100421.66;5112141;28;20054;-63
2021/01/15 08:36:45;;;;;;;26.70;15.02;;;;;;;1.08;90.47;100408.16;5112268;28;20031;-64
2021/01/15 08:39:11;;;;;;;25.23;14.23;;;;;;;1.17;89.24;100415.66;5112362;28;20038;-63
2021/01/15 08:41:37;;;;;;;23.27;12.93;;;;;;;1.24;88.74;100419.69;5112193;28;20057;-66
2021/01/15 08:44:04;;;;;;;25.25;14.23;;;;;;;1.24;87.73;100401.22;5111990;28;20547;-67
2021/01/15 08:46:31;;;;;;;22.63;13.40;;;;;;;1.35;87.16;100411.25;5111316;28;20024;-66
2021/01/15 08:48:58;;;;;;;26.23;13.52;;;;;;;1.43;87.26;100420.53;5111995;28;20023;-66
2021/01/15 08:51:26;;;;;;;24.45;14.63;;;;;;;1.55;86.23;100411.13;5111979;28;20061;-66
2021/01/15 08:56:52;;;;;;;28.65;15.82;;;;;;;1.68;84.33;100410.41;5102766;28;20122;-66
2021/01/15 08:59:26;;;;;;;25.08;14.25;;;;;;;1.72;84.20;100419.94;5111863;28;20046;-65
2021/01/15 09:01:53;;;;;;;26.90;14.02;;;;;;;1.79;83.45;100417.81;5111990;28;20023;-65
2021/01/15 09:04:24;;;;;;;23.25;13.07;;;;;;;1.85;82.23;100420.16;5111809;28;20031;-66
2021/01/15 09:06:53;;;;;;;27.25;14.45;;;;;;;1.84;82.71;100427.22;5112274;28;20463;-66
2021/01/15 09:09:21;;;;;;;35.60;17.73;;;;;;;1.78;82.37;100405.53;5111781;28;20023;-66
2021/01/15 09:11:48;;;;;;;24.67;13.13;;;;;;;1.86;82.21;100411.28;5111585;28;20032;-66
2021/01/15 09:14:13;;;;;;;24.70;14.02;;;;;;;2.00;81.47;100416.75;5111574;28;20035;-66
2021/01/15 09:16:41;;;;;;;22.95;13.45;;;;;;;1.99;80.96;100418.53;5111628;28;20323;-66
2021/01/15 09:19:10;;;;;;;28.35;14.50;;;;;;;1.97;81.55;100415.09;5111614;28;20023;-65
2021/01/15 09:21:47;;;;;;;32.00;16.25;;;;;;;1.97;82.05;100416.91;5110250;28;20032;-65
2021/01/15 09:24:13;;;;;;;27.10;15.15;;;;;;;1.73;82.20;100362.63;5109991;28;20418;-65
2021/01/15 09:26:40;;;;;;;27.33;14.52;;;;;;;2.09;82.15;100419.75;5111349;28;20503;-66
2021/01/15 09:29:05;;;;;;;24.77;14.57;;;;;;;2.23;80.90;100416.41;5110024;28;20365;-65
2021/01/15 09:31:31;;;;;;;28.08;13.57;;;;;;;2.26;81.17;100425.03;5111387;28;20085;-65
2021/01/15 09:33:56;;;;;;;23.23;13.27;;;;;;;2.32;79.26;100407.97;5111515;28;20080;-66
2021/01/15 09:36:26;;;;;;;24.58;13.23;;;;;;;2.48;78.37;100414.16;5111460;28;20069;-66
2021/01/15 09:38:54;;;;;;;20.58;12.60;;;;;;;2.54;77.85;100423.59;5111413;28;20591;-66
2021/01/15 09:41:19;;;;;;;26.58;13.15;;;;;;;2.50;76.38;100400.84;5111361;28;20032;-63
2021/01/15 09:43:46;;;;;;;25.50;14.10;;;;;;;2.47;74.75;100385.13;5111130;28;20031;-63
2021/01/15 09:46:25;;;;;;;29.65;14.32;;;;;;;2.63;74.50;100408.03;5111173;28;20035;-63
2021/01/15 09:48:52;;;;;;;23.40;13.80;;;;;;;2.60;74.25;100396.75;5111425;28;20028;-66
2021/01/15 09:51:23;;;;;;;23.98;13.40;;;;;;;2.66;73.81;100413.19;5111121;28;20084;-63
2021/01/15 09:53:49;;;;;;;24.38;13.63;;;;;;;2.64;74.42;100411.56;5111139;28;20369;-63
2021/01/15 09:56:22;;;;;;;27.23;13.82;;;;;;;2.62;74.60;100418.72;5111220;28;20015;-63
2021/01/15 09:58:47;;;;;;;25.85;13.27;;;;;;;2.63;74.62;100413.34;5114807;28;20055;-63
2021/01/15 10:01:13;;;;;;;27.17;14.52;;;;;;;2.73;73.02;100413.69;5115263;28;20518;-63
2021/01/15 10:03:38;;;;;;;23.30;13.07;;;;;;;2.49;73.55;100393.84;5115171;28;20509;-63
2021/01/15 10:06:04;;;;;;;26.48;13.85;;;;;;;2.57;74.57;100404.88;5114981;28;20379;-63
2021/01/15 10:08:29;;;;;;;26.45;13.75;;;;;;;2.63;74.50;100397.47;5115399;28;20035;-63
2021/01/15 10:10:55;;;;;;;25.45;13.13;;;;;;;2.65;73.59;100398.25;5115241;28;20031;-63
2021/01/15 10:13:21;;;;;;;25.25;13.77;;;;;;;2.78;73.09;100398.41;5114915;28;20074;-63
2021/01/15 10:15:46;;;;;;;25.38;13.77;;;;;;;2.83;72.27;100399.88;5115110;28;20027;-63
2021/01/15 10:18:11;;;;;;;25.65;14.55;;;;;;;2.91;71.58;100408.25;5114906;28;20023;-63
2021/01/15 10:20:44;;;;;;;28.63;14.02;;;;;;;2.97;71.17;100401.75;5115499;28;20097;-63
2021/01/15 10:23:09;;;;;;;26.88;14.55;;;;;;;3.03;69.90;100406.72;5114668;28;20047;-63
2021/01/15 10:25:35;;;;;;;23.75;14.35;;;;;;;2.87;68.82;100376.72;5114284;28;20093;-63
2021/01/15 10:28:00;;;;;;;23.98;13.98;;;;;;;3.01;69.50;100395.34;5114519;28;20488;-63
2021/01/15 10:30:26;;;;;;;27.25;14.25;;;;;;;3.05;69.11;100399.53;5107417;28;20604;-62
2021/01/15 10:32:51;;;;;;;25.85;15.07;;;;;;;3.12;68.70;100398.22;5097099;28;20043;-63
2021/01/15 10:35:18;;;;;;;31.80;16.65;;;;;;;3.14;68.38;100405.19;5098602;28;20076;-63
2021/01/15 10:37:43;;;;;;;27.52;13.90;;;;;;;3.10;66.64;100381.59;5095317;28;20035;-63
2021/01/15 10:40:10;;;;;;;22.20;13.40;;;;;;;3.13;66.10;100398.16;5111493;28;20040;-63
2021/01/15 10:42:40;;;;;;;22.17;12.18;;;;;;;3.26;65.03;100403.63;5113577;28;20020;-63
2021/01/15 10:45:06;;;;;;;25.17;11.82;;;;;;;3.23;64.51;100394.06;5111533;28;20031;-63
2021/01/15 10:47:32;;;;;;;21.95;12.25;;;;;;;3.19;64.43;100384.56;5093675;28;20027;-63
2021/01/15 10:49:58;;;;;;;20.10;11.85;;;;;;;3.26;62.85;100385.09;5103924;28;20035;-63
2021/01/15 10:52:23;;;;;;;18.73;11.63;;;;;;;3.26;62.28;100393.03;5104147;28;20031;-63
2021/01/15 10:54:49;;;;;;;18.75;11.32;;;;;;;3.27;62.38;100397.38;5110777;28;20019;-63
2021/01/15 10:57:14;;;;;;;25.67;11.50;;;;;;;3.02;62.89;100374.06;5105975;28;20026;-63
2021/01/15 10:59:40;;;;;;;23.00;11.85;;;;;;;3.19;62.80;100392.50;5109877;28;20119;-62
2021/01/15 11:02:05;;;;;;;22.85;12.02;;;;;;;3.09;62.03;100364.00;5105319;28;20032;-63
2021/01/15 11:04:31;;;;;;;21.08;12.55;;;;;;;3.27;62.17;100402.69;5109123;28;20371;-63
2021/01/15 11:06:56;;;;;;;23.13;12.38;;;;;;;3.27;61.76;100395.59;5108233;28;20024;-63
2021/01/15 11:09:24;;;;;;;25.92;12.95;;;;;;;3.09;62.46;100370.13;5097974;28;20131;-63
2021/01/15 11:11:50;;;;;;;22.08;11.88;;;;;;;3.27;60.98;100387.66;5099086;28;20024;-63
2021/01/15 11:14:19;;;;;;;24.95;13.05;;;;;;;3.31;60.63;100396.25;5093219;28;20024;-63
2021/01/15 11:16:46;;;;;;;19.60;11.45;;;;;;;3.23;60.91;100387.91;5095821;28;20020;-63
2021/01/15 11:19:15;;;;;;;24.15;12.80;;;;;;;3.20;60.69;100382.78;5091468;28;20032;-63
2021/01/15 11:21:40;;;;;;;22.42;12.07;;;;;;;3.16;61.19;100381.25;5102698;28;20051;-63
2021/01/15 11:24:10;;;;;;;20.27;11.70;;;;;;;3.30;61.00;100395.44;5112981;28;20028;-63
2021/01/15 11:26:36;;;;;;;22.80;12.38;;;;;;;3.31;60.75;100394.47;5111361;28;20114;-63